createdAt,value
2019-06-15T00:04:09.222Z,11.83
2019-06-15T00:14:42.676Z,12.50
2019-06-15T00:25:16.119Z,12.80
2019-06-15T00:35:49.658Z,12.53
2019-06-15T00:46:23.306Z,13.23
2019-06-15T00:56:56.233Z,13.70
2019-06-15T01:07:28.953Z,14.67
2019-06-15T01:18:02.619Z,15.60
2019-06-15T01:28:35.915Z,13.47
2019-06-15T01:39:09.354Z,13.10
2019-06-15T01:49:43.079Z,13.30
2019-06-15T02:00:20.831Z,14.70
2019-06-15T02:10:55.404Z,12.37
2019-06-15T02:21:28.876Z,12.00
2019-06-15T02:32:01.688Z,11.37
2019-06-15T02:42:35.074Z,11.73
2019-06-15T02:53:08.610Z,10.60
2019-06-15T03:03:42.461Z,11.37
2019-06-15T03:14:16.074Z,9.80
2019-06-15T03:24:49.771Z,9.57
2019-06-15T03:35:23.351Z,8.30
2019-06-15T03:45:56.916Z,8.30
2019-06-15T03:56:30.327Z,11.23
2019-06-15T04:07:03.986Z,11.50
2019-06-15T04:17:36.585Z,14.93
2019-06-15T04:28:09.360Z,13.10
2019-06-15T04:38:43.019Z,12.67
2019-06-15T04:49:16.677Z,11.60
2019-06-15T04:59:50.159Z,12.63
2019-06-15T05:10:23.425Z,14.43
2019-06-15T05:20:56.855Z,14.40
2019-06-15T05:31:30.477Z,15.07
2019-06-15T05:42:04.091Z,14.70
2019-06-15T05:52:37.537Z,14.00
2019-06-15T06:03:11.282Z,13.67
2019-06-15T06:13:44.909Z,11.60
2019-06-15T06:24:18.532Z,10.63
2019-06-15T06:34:52.028Z,10.10
2019-06-15T06:45:24.954Z,5.10
2019-06-15T06:55:58.479Z,3.73
2019-06-15T07:06:31.170Z,4.70
2019-06-15T07:17:04.792Z,4.40
2019-06-15T07:27:38.217Z,4.10
2019-06-15T07:38:11.781Z,4.87
2019-06-15T07:48:45.229Z,4.53
2019-06-15T07:59:18.801Z,4.77
2019-06-15T08:09:52.486Z,4.23
2019-06-15T08:20:26.837Z,3.90
2019-06-15T08:31:03.869Z,4.23
2019-06-15T08:41:37.542Z,4.47
2019-06-15T08:52:10.961Z,4.60
2019-06-15T09:02:44.355Z,4.87
2019-06-15T09:13:17.862Z,4.77
2019-06-15T09:23:50.576Z,4.70
2019-06-15T09:34:23.219Z,4.40
2019-06-15T09:44:56.780Z,4.43
2019-06-15T09:55:30.481Z,3.87
2019-06-15T10:06:05.599Z,3.40
2019-06-15T10:16:38.412Z,4.27
2019-06-15T10:27:11.961Z,4.50
2019-06-15T10:37:45.437Z,3.37
2019-06-15T10:48:18.728Z,3.83
2019-06-15T10:58:51.470Z,3.70
2019-06-15T11:09:25.034Z,3.97
2019-06-15T11:19:58.725Z,4.40
2019-06-15T11:30:32.219Z,4.23
2019-06-15T11:41:05.151Z,4.57
2019-06-15T11:51:38.798Z,4.60
2019-06-15T12:02:12.457Z,4.70
2019-06-15T12:12:45.909Z,4.43
2019-06-15T12:23:19.367Z,4.43
2019-06-15T12:33:52.246Z,5.30
2019-06-15T12:44:26.047Z,4.77
2019-06-15T12:54:59.726Z,4.80
2019-06-15T13:05:32.458Z,4.20
2019-06-15T13:16:06.027Z,4.33
2019-06-15T13:26:39.863Z,4.20
2019-06-15T13:37:13.291Z,4.30
2019-06-15T13:47:46.907Z,5.30
2019-06-15T13:58:21.668Z,3.60
2019-06-15T14:08:55.313Z,3.67
2019-06-15T14:19:28.874Z,3.70
2019-06-15T14:30:02.301Z,3.90
2019-06-15T14:40:35.786Z,7.57
2019-06-15T14:51:09.386Z,4.47
2019-06-15T15:01:43.086Z,4.00
2019-06-15T15:12:16.645Z,3.37
2019-06-15T15:22:50.029Z,3.50
2019-06-15T15:33:22.938Z,3.77
2019-06-15T15:43:55.628Z,3.30
2019-06-15T15:54:29.288Z,3.43
2019-06-15T16:05:03.028Z,4.37
2019-06-15T16:15:37.288Z,4.10
2019-06-15T16:26:11.027Z,3.57
2019-06-15T16:36:46.752Z,3.50
2019-06-15T16:47:20.016Z,3.43
2019-06-15T16:57:53.341Z,4.13
2019-06-15T17:08:26.205Z,5.10
2019-06-15T17:18:59.560Z,4.00
2019-06-15T17:29:33.328Z,3.60
2019-06-15T17:40:06.875Z,4.57
2019-06-15T17:50:57.191Z,4.77
2019-06-15T18:01:31.806Z,5.27
2019-06-15T18:12:06.544Z,3.83
2019-06-15T18:22:40.346Z,4.07
2019-06-15T18:33:16.130Z,3.93
2019-06-15T18:43:49.608Z,4.27
2019-06-15T18:54:23.380Z,4.27
2019-06-15T19:04:56.920Z,4.20
2019-06-15T19:15:30.383Z,3.93
2019-06-15T19:26:06.278Z,3.80
2019-06-15T19:36:39.673Z,3.73
2019-06-15T19:47:16.176Z,3.90
2019-06-15T19:57:49.969Z,3.97
2019-06-15T20:08:22.813Z,4.20
2019-06-15T20:18:56.387Z,4.50
2019-06-15T20:29:29.582Z,4.67
2019-06-15T20:40:03.153Z,4.70
2019-06-15T20:50:36.499Z,4.37
2019-06-15T21:01:10.075Z,4.70
2019-06-15T21:11:43.834Z,5.57
2019-06-15T21:22:17.472Z,5.20
2019-06-15T21:32:50.985Z,5.67
2019-06-15T21:43:26.422Z,4.67
2019-06-15T21:53:59.275Z,5.57
2019-06-15T22:04:32.738Z,5.20
2019-06-15T22:15:06.894Z,4.53
2019-06-15T22:25:39.961Z,4.90
2019-06-15T22:36:22.194Z,5.00
2019-06-15T22:46:49.102Z,5.20
2019-06-15T22:57:22.853Z,5.87
2019-06-15T23:07:56.297Z,5.93
2019-06-15T23:18:29.880Z,6.00
2019-06-15T23:29:03.529Z,6.23
2019-06-15T23:39:37.189Z,7.63
2019-06-15T23:50:10.833Z,7.70
